createdAt,value
2023-02-14T00:00:21.805Z,102012.69
2023-02-14T00:03:10.880Z,102008.50
2023-02-14T00:05:39.786Z,102008.33
2023-02-14T00:08:08.382Z,102013.64
2023-02-14T00:10:38.087Z,102022.14
2023-02-14T00:13:07.005Z,102018.23
2023-02-14T00:15:38.059Z,102011.89
2023-02-14T00:18:06.780Z,102009.45
2023-02-14T00:20:36.614Z,102013.08
2023-02-14T00:23:05.828Z,102015.35
2023-02-14T00:25:35.311Z,102019.44
2023-02-14T00:28:04.143Z,102021.61
2023-02-14T00:30:34.663Z,102027.91
2023-02-14T00:33:07.799Z,102030.41
2023-02-14T00:35:39.311Z,102036.98
2023-02-14T00:38:09.343Z,102041.01
2023-02-14T00:40:38.032Z,102039.51
2023-02-14T00:43:06.646Z,102043.25
2023-02-14T00:45:35.524Z,102046.00
2023-02-14T00:48:05.821Z,102051.06
2023-02-14T00:50:34.582Z,102045.80
2023-02-14T00:53:03.368Z,102047.04
2023-02-14T00:55:32.160Z,102041.77
2023-02-14T00:58:01.103Z,102042.69
2023-02-14T01:00:31.299Z,102046.04
2023-02-14T01:03:00.123Z,102044.08
2023-02-14T01:05:29.152Z,102041.40
2023-02-14T01:07:58.092Z,102043.96
2023-02-14T01:10:29.185Z,102042.55
2023-02-14T01:13:00.678Z,102038.69
2023-02-14T01:15:32.910Z,102039.04
2023-02-14T01:18:01.742Z,102033.67
2023-02-14T01:20:30.999Z,102036.41
2023-02-14T01:23:00.237Z,102040.17
2023-02-14T01:25:30.625Z,102036.44
2023-02-14T01:28:01.362Z,102035.14
2023-02-14T01:30:33.429Z,102033.79
2023-02-14T01:33:02.820Z,102033.48
2023-02-14T01:35:33.229Z,102041.59
2023-02-14T01:38:02.060Z,102047.52
2023-02-14T01:40:30.942Z,102042.88
2023-02-14T01:43:00.348Z,102043.64
2023-02-14T01:45:32.765Z,102046.63
2023-02-14T01:48:02.029Z,102054.89
2023-02-14T01:50:34.676Z,102056.08
2023-02-14T01:53:06.775Z,102052.42
2023-02-14T01:55:42.610Z,102053.90
2023-02-14T01:58:14.854Z,102043.80
2023-02-14T02:00:57.707Z,102039.94
2023-02-14T02:03:32.540Z,102041.33
2023-02-14T02:06:08.544Z,102045.88
2023-02-14T02:08:43.290Z,102048.66
2023-02-14T02:11:12.294Z,102051.84
2023-02-14T02:13:41.427Z,102050.08
2023-02-14T02:16:34.600Z,102048.33
2023-02-14T02:19:27.577Z,102046.40
2023-02-14T02:22:10.115Z,102050.96
2023-02-14T02:24:57.814Z,102039.95
2023-02-14T02:28:00.104Z,102045.31
2023-02-14T02:31:11.663Z,102046.05
2023-02-14T02:34:13.325Z,102056.67
2023-02-14T02:37:03.065Z,102061.03
2023-02-14T02:39:53.112Z,102063.77
2023-02-14T02:42:33.445Z,102067.25
2023-02-14T02:45:11.977Z,102072.73
2023-02-14T02:47:46.793Z,102078.23
2023-02-14T02:50:46.089Z,102082.83
2023-02-14T02:53:23.050Z,102083.42
2023-02-14T02:56:18.949Z,102083.21
2023-02-14T02:58:52.603Z,102084.91
2023-02-14T03:01:24.247Z,102087.51
2023-02-14T03:04:19.145Z,102088.10
2023-02-14T03:06:48.738Z,102081.77
2023-02-14T03:09:49.580Z,102083.83
2023-02-14T03:12:38.443Z,102087.73
2023-02-14T03:15:16.618Z,102085.32
2023-02-14T03:17:55.367Z,102084.04
2023-02-14T03:20:38.575Z,102086.98
2023-02-14T03:23:14.868Z,102090.80
2023-02-14T03:25:55.365Z,102091.89
2023-02-14T03:28:34.476Z,102091.60
2023-02-14T03:31:15.094Z,102086.05
2023-02-14T03:33:53.237Z,102088.05
2023-02-14T03:36:26.019Z,102087.75
2023-02-14T03:39:05.571Z,102090.22
2023-02-14T03:41:39.580Z,102089.23
2023-02-14T03:44:11.251Z,102091.22
2023-02-14T03:46:47.348Z,102092.32
2023-02-14T03:49:19.945Z,102095.52
2023-02-14T03:51:52.439Z,102095.25
2023-02-14T03:54:24.258Z,102097.86
2023-02-14T03:56:59.979Z,102094.27
2023-02-14T03:59:29.854Z,102087.25
2023-02-14T04:02:06.322Z,102088.86
2023-02-14T04:04:38.802Z,102089.60
2023-02-14T04:07:16.190Z,102092.50
2023-02-14T04:09:51.482Z,102089.35
2023-02-14T04:12:32.277Z,102082.31
2023-02-14T04:15:06.016Z,102077.92
2023-02-14T04:17:53.259Z,102076.39
2023-02-14T04:20:32.472Z,102078.95
2023-02-14T04:23:03.304Z,102084.86
2023-02-14T04:25:33.435Z,102076.58
2023-02-14T04:28:02.128Z,102068.66
2023-02-14T04:30:33.644Z,102074.59
2023-02-14T04:33:04.696Z,102081.36
2023-02-14T04:35:33.671Z,102082.23
2023-02-14T04:38:10.367Z,102085.26
2023-02-14T04:40:39.232Z,102087.09
2023-02-14T04:43:08.878Z,102092.52
2023-02-14T04:45:40.710Z,102098.56
2023-02-14T04:48:13.886Z,102103.90
2023-02-14T04:50:43.223Z,102103.42
2023-02-14T04:53:13.198Z,102109.27
2023-02-14T04:55:42.953Z,102111.66
2023-02-14T04:58:14.557Z,102110.52
2023-02-14T05:00:44.696Z,102110.60
2023-02-14T05:03:15.930Z,102117.55
2023-02-14T05:05:45.626Z,102118.55
2023-02-14T05:08:15.811Z,102117.27
2023-02-14T05:10:45.482Z,102121.71
2023-02-14T05:13:14.932Z,102123.81
2023-02-14T05:15:46.082Z,102123.41
2023-02-14T05:18:17.724Z,102127.79
2023-02-14T05:20:50.578Z,102130.54
2023-02-14T05:23:21.346Z,102127.23
2023-02-14T05:25:50.977Z,102127.81
2023-02-14T05:28:20.558Z,102129.92
2023-02-14T05:30:53.270Z,102139.47
2023-02-14T05:33:25.508Z,102139.08
2023-02-14T05:35:56.958Z,102138.23
2023-02-14T05:38:25.948Z,102138.97
2023-02-14T05:40:54.872Z,102144.70
2023-02-14T05:43:35.335Z,102146.60
2023-02-14T05:46:08.507Z,102140.15
2023-02-14T05:48:37.926Z,102143.90
2023-02-14T05:51:08.842Z,102149.40
2023-02-14T05:53:37.792Z,102145.03
2023-02-14T05:56:07.254Z,102143.99
2023-02-14T05:58:36.244Z,102149.24
2023-02-14T06:01:05.332Z,102152.44
2023-02-14T06:03:34.190Z,102155.92
2023-02-14T06:06:03.128Z,102153.34
2023-02-14T06:08:32.181Z,102156.56
2023-02-14T06:11:01.138Z,102162.90
2023-02-14T06:13:30.368Z,102163.85
2023-02-14T06:15:58.905Z,102162.86
2023-02-14T06:18:29.109Z,102167.64
2023-02-14T06:20:58.195Z,102167.58
2023-02-14T06:23:27.245Z,102163.08
2023-02-14T06:25:55.896Z,102165.08
2023-02-14T06:28:24.781Z,102173.10
2023-02-14T06:30:53.628Z,102166.45
2023-02-14T06:33:22.560Z,102168.89
2023-02-14T06:35:54.311Z,102172.91
2023-02-14T06:38:22.822Z,102176.25
2023-02-14T06:40:51.422Z,102178.39
2023-02-14T06:43:22.516Z,102177.86
2023-02-14T06:45:52.397Z,102179.25
2023-02-14T06:48:21.013Z,102183.20
2023-02-14T06:50:49.657Z,102184.60
2023-02-14T06:53:18.232Z,102180.98
2023-02-14T06:55:48.487Z,102180.59
2023-02-14T06:58:18.437Z,102181.59
2023-02-14T07:00:48.237Z,102182.65
2023-02-14T07:03:17.911Z,102183.02
2023-02-14T07:05:49.353Z,102184.41
2023-02-14T07:08:18.182Z,102188.11
2023-02-14T07:10:47.668Z,102185.80
2023-02-14T07:13:16.290Z,102179.31
2023-02-14T07:15:47.262Z,102178.41
2023-02-14T07:18:16.066Z,102182.53
2023-02-14T07:20:47.769Z,102184.76
2023-02-14T07:23:16.294Z,102182.36
2023-02-14T07:25:47.621Z,102190.47
2023-02-14T07:28:16.551Z,102190.34
2023-02-14T07:30:47.678Z,102194.98
2023-02-14T07:33:17.362Z,102196.94
2023-02-14T07:35:49.205Z,102203.44
2023-02-14T07:38:18.199Z,102202.48
2023-02-14T07:40:51.796Z,102201.60
2023-02-14T07:43:21.685Z,102198.83
2023-02-14T07:45:50.321Z,102194.00
2023-02-14T07:48:19.506Z,102195.67
2023-02-14T07:50:48.900Z,102199.48
2023-02-14T07:53:17.738Z,102197.77
2023-02-14T07:55:50.576Z,102199.45
2023-02-14T07:58:19.493Z,102202.65
2023-02-14T08:00:48.311Z,102211.44
2023-02-14T08:03:18.108Z,102212.48
2023-02-14T08:05:56.473Z,102215.27
2023-02-14T08:08:26.860Z,102224.78
2023-02-14T08:10:56.114Z,102231.41
2023-02-14T08:13:25.018Z,102232.44
2023-02-14T08:16:07.108Z,102236.52
2023-02-14T08:18:38.447Z,102243.79
2023-02-14T08:21:11.202Z,102244.58
2023-02-14T08:23:40.040Z,102246.20
2023-02-14T08:26:11.795Z,102249.70
2023-02-14T08:28:40.973Z,102245.59
2023-02-14T08:31:10.732Z,102249.34
2023-02-14T08:33:39.724Z,102252.05
2023-02-14T08:36:09.033Z,102256.56
2023-02-14T08:38:38.019Z,102258.85
2023-02-14T08:41:09.621Z,102257.67
2023-02-14T08:43:38.584Z,102259.31
2023-02-14T08:46:07.612Z,102255.04
2023-02-14T08:48:39.208Z,102246.70
2023-02-14T08:51:09.751Z,102250.13
2023-02-14T08:53:38.740Z,102247.40
2023-02-14T08:56:10.073Z,102252.52
2023-02-14T08:58:39.537Z,102253.98
2023-02-14T09:01:11.460Z,102251.96
2023-02-14T09:03:40.842Z,102251.27
2023-02-14T09:06:13.783Z,102253.73
2023-02-14T09:08:42.981Z,102256.77
2023-02-14T09:11:18.136Z,102258.41
2023-02-14T09:13:49.705Z,102258.70
2023-02-14T09:16:20.005Z,102258.16
2023-02-14T09:18:49.170Z,102258.30
2023-02-14T09:21:20.384Z,102254.58
2023-02-14T09:23:49.772Z,102259.02
2023-02-14T09:26:19.250Z,102257.84
2023-02-14T09:28:48.305Z,102258.54
2023-02-14T09:31:20.409Z,102264.27
2023-02-14T09:34:08.950Z,102264.98
2023-02-14T09:36:37.599Z,102268.41
2023-02-14T09:39:06.424Z,102266.86
2023-02-14T09:42:01.080Z,102260.35
2023-02-14T09:44:34.469Z,102260.80
2023-02-14T09:47:12.624Z,102266.30
2023-02-14T09:49:41.873Z,102267.54
2023-02-14T09:52:15.814Z,102266.54
2023-02-14T09:54:51.193Z,102265.89
2023-02-14T09:57:33.309Z,102262.21
2023-02-14T10:00:12.939Z,102264.08
2023-02-14T10:02:54.680Z,102265.32
2023-02-14T10:05:28.192Z,102267.77
2023-02-14T10:08:04.298Z,102272.12
2023-02-14T10:10:40.131Z,102273.46
2023-02-14T10:13:22.492Z,102275.86
2023-02-14T10:15:59.464Z,102272.40
2023-02-14T10:18:38.325Z,102275.16
2023-02-14T10:21:12.764Z,102271.35
2023-02-14T10:23:49.273Z,102271.10
2023-02-14T10:26:24.801Z,102268.52
2023-02-14T10:28:55.357Z,102261.65
2023-02-14T10:31:33.192Z,102259.77
2023-02-14T10:34:08.528Z,102265.19
2023-02-14T10:36:50.233Z,102264.58
2023-02-14T10:39:36.670Z,102263.39
2023-02-14T10:42:16.392Z,102263.55
2023-02-14T10:44:58.312Z,102266.35
2023-02-14T10:47:42.073Z,102268.98
2023-02-14T10:50:19.235Z,102270.48
2023-02-14T10:52:58.920Z,102270.36
2023-02-14T10:55:44.973Z,102265.78
2023-02-14T10:58:20.107Z,102265.66
2023-02-14T11:00:58.695Z,102263.16
2023-02-14T11:03:29.058Z,102263.52
2023-02-14T11:05:58.734Z,102259.30
2023-02-14T11:08:32.370Z,102260.63
2023-02-14T11:11:08.017Z,102258.80
2023-02-14T11:13:38.846Z,102260.14
2023-02-14T11:16:10.370Z,102259.20
2023-02-14T11:18:40.826Z,102252.92
2023-02-14T11:21:12.346Z,102255.52
2023-02-14T11:23:43.026Z,102259.05
2023-02-14T11:26:22.980Z,102258.77
2023-02-14T11:28:56.368Z,102257.17
2023-02-14T11:31:33.675Z,102257.91
2023-02-14T11:34:05.225Z,102260.31
2023-02-14T11:36:41.818Z,102256.64
2023-02-14T11:39:25.866Z,102245.89
2023-02-14T11:41:56.715Z,102246.56
2023-02-14T11:44:27.508Z,102242.36
2023-02-14T11:47:06.855Z,102237.56
2023-02-14T11:49:37.290Z,102227.54
2023-02-14T11:52:15.690Z,102227.98
2023-02-14T11:54:49.043Z,102231.09
2023-02-14T11:57:23.308Z,102228.75
2023-02-14T11:59:54.496Z,102226.52
2023-02-14T12:02:33.020Z,102225.91
2023-02-14T12:05:06.282Z,102225.98
2023-02-14T12:07:37.932Z,102223.68
2023-02-14T12:10:21.922Z,102222.48
2023-02-14T12:12:53.189Z,102223.33
2023-02-14T12:15:37.549Z,102226.71
2023-02-14T12:18:37.921Z,102226.96
2023-02-14T12:21:23.785Z,102222.66
2023-02-14T12:24:00.844Z,102220.04
2023-02-14T12:26:39.030Z,102218.64
2023-02-14T12:29:17.866Z,102219.23
2023-02-14T12:31:50.409Z,102217.73
2023-02-14T12:34:20.340Z,102219.73
2023-02-14T12:37:08.452Z,102218.45
2023-02-14T12:39:48.927Z,102222.82
2023-02-14T12:42:37.874Z,102224.96
2023-02-14T12:45:17.451Z,102217.02
2023-02-14T12:48:01.347Z,102216.88
2023-02-14T12:50:38.136Z,102215.49
2023-02-14T12:53:35.051Z,102208.74
2023-02-14T12:56:13.686Z,102208.02
2023-02-14T12:58:53.923Z,102208.61
2023-02-14T13:02:01.288Z,102206.45
2023-02-14T13:05:06.397Z,102203.02
2023-02-14T13:07:54.357Z,102199.27
2023-02-14T13:10:44.072Z,102193.55
2023-02-14T13:13:23.442Z,102197.42
2023-02-14T13:16:00.850Z,102199.52
2023-02-14T13:18:39.513Z,102197.70
2023-02-14T13:21:14.108Z,102199.23
2023-02-14T13:23:46.409Z,102204.29
2023-02-14T13:26:20.337Z,102205.58
2023-02-14T13:28:52.534Z,102203.71
2023-02-14T13:31:22.610Z,102207.44
2023-02-14T13:33:58.478Z,102208.67
2023-02-14T13:36:28.830Z,102208.79
2023-02-14T13:38:59.350Z,102209.83
2023-02-14T13:41:30.459Z,102206.40
2023-02-14T13:44:01.095Z,102206.41
2023-02-14T13:46:51.965Z,102207.30
2023-02-14T13:49:29.617Z,102207.80
2023-02-14T13:52:03.006Z,102209.27
2023-02-14T13:54:41.368Z,102207.84
2023-02-14T13:57:30.638Z,102203.98
2023-02-14T14:00:37.392Z,102204.27
2023-02-14T14:03:07.588Z,102202.30
2023-02-14T14:06:06.830Z,102202.08
2023-02-14T14:08:40.458Z,102198.73
2023-02-14T14:11:34.115Z,102195.92
2023-02-14T14:14:04.075Z,102193.33
2023-02-14T14:16:36.306Z,102193.52
2023-02-14T14:19:31.272Z,102196.30
2023-02-14T14:22:05.930Z,102193.94
2023-02-14T14:24:36.235Z,102195.30
2023-02-14T14:27:13.950Z,102199.45
2023-02-14T14:29:50.016Z,102198.64
2023-02-14T14:32:25.744Z,102198.16
2023-02-14T14:34:57.916Z,102205.29
2023-02-14T14:37:31.801Z,102207.32
2023-02-14T14:40:03.764Z,102209.39
2023-02-14T14:42:36.746Z,102210.22
2023-02-14T14:45:09.274Z,102209.73
2023-02-14T14:47:48.723Z,102213.55
2023-02-14T14:50:29.760Z,102210.59
2023-02-14T14:53:36.782Z,102213.08
2023-02-14T14:56:51.878Z,102212.58
2023-02-14T14:59:43.193Z,102213.55
2023-02-14T15:02:39.326Z,102208.98
2023-02-14T15:05:49.325Z,102207.49
2023-02-14T15:11:57.667Z,102207.77
2023-02-14T15:14:43.858Z,102208.24
2023-02-14T15:18:05.195Z,102210.49
2023-02-14T15:21:06.106Z,102216.12
2023-02-14T15:23:59.589Z,102216.19
2023-02-14T15:27:01.504Z,102214.84
2023-02-14T15:29:56.397Z,102215.73
2023-02-14T15:32:28.923Z,102216.04
2023-02-14T15:34:59.754Z,102220.58
2023-02-14T15:37:32.274Z,102211.58
2023-02-14T15:40:02.205Z,102212.88
2023-02-14T15:42:33.914Z,102212.98
2023-02-14T15:45:21.882Z,102211.39
2023-02-14T15:47:56.527Z,102212.33
2023-02-14T15:50:29.475Z,102209.50
2023-02-14T15:53:04.033Z,102217.37
2023-02-14T15:55:35.256Z,102214.32
2023-02-14T15:58:06.624Z,102217.48
2023-02-14T16:00:36.502Z,102223.09
2023-02-14T16:03:12.860Z,102224.60
2023-02-14T16:05:50.763Z,102228.92
2023-02-14T16:08:29.765Z,102231.41
2023-02-14T16:11:08.864Z,102235.11
2023-02-14T16:13:41.438Z,102233.90
2023-02-14T16:16:14.714Z,102234.27
2023-02-14T16:18:48.949Z,102239.40
2023-02-14T16:21:20.052Z,102243.79
2023-02-14T16:24:12.796Z,102241.70
2023-02-14T16:26:43.508Z,102243.52
2023-02-14T16:29:15.618Z,102247.64
2023-02-14T16:32:14.210Z,102250.92
2023-02-14T16:34:40.365Z,102247.14
2023-02-14T16:37:18.996Z,102251.20
2023-02-14T16:39:57.621Z,102249.56
2023-02-14T16:42:32.226Z,102253.59
2023-02-14T16:45:01.488Z,102254.05
2023-02-14T16:47:30.739Z,102256.80
2023-02-14T16:49:59.786Z,102253.71
2023-02-14T16:52:29.716Z,102256.13
2023-02-14T16:54:58.956Z,102258.02
2023-02-14T16:57:35.130Z,102259.02
2023-02-14T17:00:08.653Z,102260.02
2023-02-14T17:05:23.810Z,102252.96
2023-02-14T17:07:52.768Z,102254.77
2023-02-14T17:10:22.072Z,102257.69
2023-02-14T17:12:52.266Z,102257.88
2023-02-14T17:15:24.325Z,102259.80
2023-02-14T17:17:58.993Z,102262.95
2023-02-14T17:20:29.849Z,102263.21
2023-02-14T17:22:59.095Z,102265.75
2023-02-14T17:25:28.042Z,102266.85
2023-02-14T17:27:56.853Z,102268.52
2023-02-14T17:30:28.484Z,102272.14
2023-02-14T17:32:58.185Z,102270.17
2023-02-14T17:35:27.126Z,102274.15
2023-02-14T17:37:56.459Z,102274.80
2023-02-14T17:40:25.198Z,102278.14
2023-02-14T17:42:54.761Z,102275.97
2023-02-14T17:45:23.935Z,102274.84
2023-02-14T17:47:52.685Z,102274.89
2023-02-14T17:50:21.748Z,102271.58
2023-02-14T17:52:54.599Z,102274.57
2023-02-14T17:55:23.639Z,102272.88
2023-02-14T17:57:52.403Z,102270.80
2023-02-14T18:00:23.332Z,102272.26
2023-02-14T18:02:52.590Z,102275.64
2023-02-14T18:05:22.211Z,102270.27
2023-02-14T18:07:52.374Z,102272.91
2023-02-14T18:10:21.318Z,102271.34
2023-02-14T18:12:50.013Z,102273.54
2023-02-14T18:15:19.355Z,102272.42
2023-02-14T18:17:50.517Z,102274.23
2023-02-14T18:20:20.261Z,102276.13
2023-02-14T18:22:50.031Z,102272.91
2023-02-14T18:25:19.174Z,102272.14
2023-02-14T18:27:48.665Z,102274.92
2023-02-14T18:30:18.033Z,102273.10
2023-02-14T18:32:47.309Z,102273.77
2023-02-14T18:35:16.494Z,102275.61
2023-02-14T18:37:49.908Z,102274.30
2023-02-14T18:40:19.887Z,102276.27
2023-02-14T18:42:49.314Z,102274.05
2023-02-14T18:45:18.508Z,102273.60
2023-02-14T18:47:51.862Z,102276.40
2023-02-14T18:50:21.000Z,102275.39
2023-02-14T18:52:50.220Z,102270.96
2023-02-14T18:55:19.687Z,102273.76
2023-02-14T18:57:53.501Z,102276.64
2023-02-14T19:00:32.235Z,102272.98
2023-02-14T19:03:04.256Z,102276.10
2023-02-14T19:05:37.085Z,102275.64
2023-02-14T19:08:09.651Z,102275.87
2023-02-14T19:10:43.646Z,102274.83
2023-02-14T19:13:13.420Z,102275.92
2023-02-14T19:15:47.003Z,102279.27
2023-02-14T19:18:19.832Z,102278.63
2023-02-14T19:20:49.478Z,102277.67
2023-02-14T19:23:22.982Z,102278.17
2023-02-14T19:25:54.761Z,102278.66
2023-02-14T19:28:27.709Z,102278.59
2023-02-14T19:31:00.207Z,102281.43
2023-02-14T19:33:32.486Z,102285.76
2023-02-14T19:36:12.257Z,102284.94
2023-02-14T19:38:45.504Z,102283.65
2023-02-14T19:41:20.022Z,102283.08
2023-02-14T19:43:51.776Z,102282.95
2023-02-14T19:46:23.190Z,102279.70
2023-02-14T19:48:52.726Z,102282.73
2023-02-14T19:51:25.633Z,102278.30
2023-02-14T19:53:55.302Z,102281.65
2023-02-14T19:56:27.184Z,102281.70
2023-02-14T19:58:58.096Z,102279.77
2023-02-14T20:01:33.289Z,102281.57
2023-02-14T20:04:02.837Z,102279.64
2023-02-14T20:06:31.967Z,102281.90
2023-02-14T20:09:00.739Z,102278.55
2023-02-14T20:11:32.960Z,102275.38
2023-02-14T20:14:02.444Z,102275.06
2023-02-14T20:16:34.503Z,102275.42
2023-02-14T20:19:07.442Z,102276.74
2023-02-14T20:21:36.951Z,102274.94
2023-02-14T20:24:11.120Z,102273.94
2023-02-14T20:26:41.953Z,102273.47
2023-02-14T20:29:11.510Z,102273.31
2023-02-14T20:31:44.978Z,102274.56
2023-02-14T20:34:15.997Z,102275.39
2023-02-14T20:36:49.359Z,102271.86
2023-02-14T20:39:20.259Z,102267.22
2023-02-14T20:41:53.754Z,102271.64
2023-02-14T20:44:23.245Z,102272.64
2023-02-14T20:46:53.912Z,102273.76
2023-02-14T20:49:27.705Z,102275.83
2023-02-14T20:52:00.172Z,102275.84
2023-02-14T20:54:30.252Z,102271.89
2023-02-14T20:57:02.756Z,102271.55
2023-02-14T20:59:32.405Z,102274.47
2023-02-14T21:02:01.009Z,102275.73
2023-02-14T21:04:29.999Z,102280.32
2023-02-14T21:07:00.012Z,102277.01
2023-02-14T21:09:30.077Z,102274.64
2023-02-14T21:11:58.884Z,102271.69
2023-02-14T21:14:28.086Z,102272.23
2023-02-14T21:16:56.922Z,102277.52
2023-02-14T21:19:28.016Z,102277.71
2023-02-14T21:21:56.841Z,102279.13
2023-02-14T21:24:28.643Z,102275.70
2023-02-14T21:26:57.319Z,102272.92
2023-02-14T21:29:28.780Z,102274.35
2023-02-14T21:31:57.943Z,102279.84
2023-02-14T21:34:27.385Z,102278.52
2023-02-14T21:37:01.409Z,102276.38
2023-02-14T21:39:30.606Z,102279.38
2023-02-14T21:42:00.610Z,102278.31
2023-02-14T21:44:47.996Z,102277.52
2023-02-14T21:47:20.970Z,102274.23
2023-02-14T21:50:09.258Z,102274.64
2023-02-14T21:52:38.641Z,102277.83
2023-02-14T21:55:08.228Z,102273.80
2023-02-14T21:57:36.983Z,102271.38
2023-02-14T22:00:08.712Z,102274.04
2023-02-14T22:02:39.838Z,102273.95
2023-02-14T22:05:08.933Z,102273.41
2023-02-14T22:07:38.278Z,102275.09
2023-02-14T22:10:09.844Z,102274.39
2023-02-14T22:12:38.642Z,102275.05
2023-02-14T22:15:09.160Z,102275.48
2023-02-14T22:17:38.495Z,102272.75
2023-02-14T22:20:10.645Z,102272.92
2023-02-14T22:22:41.339Z,102267.44
2023-02-14T22:25:10.136Z,102267.70
2023-02-14T22:27:40.970Z,102262.48
2023-02-14T22:30:13.242Z,102264.23
2023-02-14T22:32:43.180Z,102264.46
2023-02-14T22:35:12.556Z,102263.48
2023-02-14T22:37:43.752Z,102261.03
2023-02-14T22:40:13.261Z,102264.36
2023-02-14T22:42:42.875Z,102260.71
2023-02-14T22:45:12.326Z,102260.49
2023-02-14T22:47:42.069Z,102261.84
2023-02-14T22:50:13.269Z,102261.16
2023-02-14T22:52:44.909Z,102259.47
2023-02-14T22:55:15.111Z,102260.89
2023-02-14T22:57:47.621Z,102258.30
2023-02-14T23:00:17.440Z,102258.96
2023-02-14T23:02:48.706Z,102256.57
2023-02-14T23:05:17.787Z,102256.99
2023-02-14T23:07:49.428Z,102259.94
2023-02-14T23:10:19.237Z,102256.43
2023-02-14T23:13:07.408Z,102254.61
2023-02-14T23:15:56.517Z,102259.52
2023-02-14T23:18:42.792Z,102259.84
2023-02-14T23:21:31.960Z,102255.25
2023-02-14T23:23:59.821Z,102254.78
2023-02-14T23:26:29.753Z,102256.25
2023-02-14T23:28:58.941Z,102258.23
2023-02-14T23:31:29.633Z,102258.79
2023-02-14T23:33:59.149Z,102263.06
2023-02-14T23:36:30.496Z,102261.34
2023-02-14T23:39:00.028Z,102258.77
2023-02-14T23:41:47.742Z,102258.75
2023-02-14T23:44:19.490Z,102260.58
2023-02-14T23:46:52.400Z,102260.95
2023-02-14T23:49:22.971Z,102259.14
2023-02-14T23:51:54.056Z,102258.52
2023-02-14T23:54:24.272Z,102259.58
2023-02-14T23:56:54.128Z,102257.51
2023-02-14T23:59:25.079Z,102256.91
